CheckWX is a tool to help pilots better visualize weather data.  It is not intended as a substitute for an official pre-flight weather briefing.

18:43:39 UTC

KOPF METAR
Miami-Opa Locka Executive Airport
Miami, Florida, USA
Current

51 mins ago

KOPF 241753Z VRB06KT 10SM SCT055 28/14 A3005 RMK AO2 SLP176 T02780144 10278 20217 58008
Observed
Apr-24 @ 17:53 UTC
Wind
  • Variable at 6 KTS
Visibility
10 SM
Flight Rules
VFR
Cloud Levels
  • Scattered at 5,500' AGL
Temperature
28°C / 82°F
Dewpoint
14°C / 57°F
Heat Index
28°C / 82°F
Humidity
42%
Altimeter
30.05" Hg
Pressure
1017.62 hPa
Previous

2 hours ago

KOPF 241653Z 10SM FEW045 27/15 A3006 RMK AO2 SLP179 T02720150
Observed
Apr-24 @ 16:53 UTC
Visibility
10 SM
Flight Rules
VFR
Cloud Levels
  • Few at 4,500' AGL
Temperature
27°C / 81°F
Dewpoint
15°C / 59°F
Heat Index
27°C / 81°F
Humidity
48%
Altimeter
30.06" Hg
Pressure
1017.92 hPa
Previous

3 hours ago

KOPF 241553Z 09004KT 10SM BKN044 26/15 A3007 RMK AO2 SLP183 T02610150
Observed
Apr-24 @ 15:53 UTC
Wind
  • 090° at 4 KTS
Visibility
10 SM
Flight Rules
VFR
Cloud Levels
  • Broken at 4,400' AGL
Temperature
26°C / 79°F
Dewpoint
15°C / 59°F
Humidity
51%
Altimeter
30.07" Hg
Pressure
1018.32 hPa